sensor_id;sensor_type;location;lat;lon;timestamp;P1;durP1;ratioP1;P2;durP2;ratioP2
5135;SDS011;2586;48.710;9.202;2023-06-10T00:01:53;6.43;;;5.10;;
5135;SDS011;2586;48.710;9.202;2023-06-10T00:04:24;4.90;;;4.50;;
5135;SDS011;2586;48.710;9.202;2023-06-10T00:06:50;7.83;;;4.63;;
5135;SDS011;2586;48.710;9.202;2023-06-10T00:09:16;5.17;;;4.53;;
5135;SDS011;2586;48.710;9.202;2023-06-10T00:11:44;5.33;;;4.83;;
5135;SDS011;2586;48.710;9.202;2023-06-10T00:14:10;6.60;;;4.47;;
5135;SDS011;2586;48.710;9.202;2023-06-10T00:16:36;11.50;;;4.87;;
5135;SDS011;2586;48.710;9.202;2023-06-10T00:19:02;12.83;;;4.63;;
5135;SDS011;2586;48.710;9.202;2023-06-10T00:21:29;4.10;;;3.80;;
5135;SDS011;2586;48.710;9.202;2023-06-10T00:24:02;5.27;;;4.63;;
5135;SDS011;2586;48.710;9.202;2023-06-10T00:26:28;6.63;;;5.07;;
5135;SDS011;2586;48.710;9.202;2023-06-10T00:28:54;5.50;;;5.00;;
5135;SDS011;2586;48.710;9.202;2023-06-10T00:31:20;6.40;;;4.40;;
5135;SDS011;2586;48.710;9.202;2023-06-10T00:33:45;10.57;;;4.47;;
5135;SDS011;2586;48.710;9.202;2023-06-10T00:36:11;3.73;;;3.43;;
5135;SDS011;2586;48.710;9.202;2023-06-10T00:38:36;7.23;;;4.60;;
5135;SDS011;2586;48.710;9.202;2023-06-10T00:41:02;5.73;;;4.90;;
5135;SDS011;2586;48.710;9.202;2023-06-10T00:43:28;6.07;;;5.43;;
5135;SDS011;2586;48.710;9.202;2023-06-10T00:45:53;5.40;;;5.00;;
5135;SDS011;2586;48.710;9.202;2023-06-10T00:48:19;4.93;;;4.47;;
5135;SDS011;2586;48.710;9.202;2023-06-10T00:50:45;7.20;;;5.30;;
5135;SDS011;2586;48.710;9.202;2023-06-10T00:53:12;4.80;;;4.50;;
5135;SDS011;2586;48.710;9.202;2023-06-10T00:55:38;4.70;;;4.30;;
5135;SDS011;2586;48.710;9.202;2023-06-10T00:58:05;5.77;;;5.27;;
5135;SDS011;2586;48.710;9.202;2023-06-10T01:00:30;5.67;;;4.93;;
5135;SDS011;2586;48.710;9.202;2023-06-10T01:02:56;4.77;;;4.37;;
5135;SDS011;2586;48.710;9.202;2023-06-10T01:05:23;4.13;;;3.83;;
5135;SDS011;2586;48.710;9.202;2023-06-10T01:13:11;6.53;;;4.80;;
5135;SDS011;2586;48.710;9.202;2023-06-10T01:15:38;7.83;;;5.10;;
5135;SDS011;2586;48.710;9.202;2023-06-10T01:18:05;5.37;;;4.83;;
5135;SDS011;2586;48.710;9.202;2023-06-10T01:20:34;6.73;;;5.33;;
5135;SDS011;2586;48.710;9.202;2023-06-10T01:23:05;5.80;;;5.10;;
5135;SDS011;2586;48.710;9.202;2023-06-10T01:25:31;6.27;;;5.77;;
5135;SDS011;2586;48.710;9.202;2023-06-10T01:28:10;6.03;;;5.50;;
5135;SDS011;2586;48.710;9.202;2023-06-10T01:33:37;5.67;;;5.10;;
5135;SDS011;2586;48.710;9.202;2023-06-10T01:36:06;5.57;;;5.10;;
5135;SDS011;2586;48.710;9.202;2023-06-10T01:38:33;10.70;;;5.27;;
5135;SDS011;2586;48.710;9.202;2023-06-10T01:41:04;5.87;;;4.70;;
5135;SDS011;2586;48.710;9.202;2023-06-10T01:43:34;12.60;;;4.90;;
5135;SDS011;2586;48.710;9.202;2023-06-10T01:46:02;7.53;;;4.67;;
5135;SDS011;2586;48.710;9.202;2023-06-10T01:48:27;5.50;;;5.00;;
5135;SDS011;2586;48.710;9.202;2023-06-10T01:50:53;6.53;;;5.27;;
5135;SDS011;2586;48.710;9.202;2023-06-10T01:53:21;5.90;;;4.57;;
5135;SDS011;2586;48.710;9.202;2023-06-10T01:55:47;5.13;;;4.63;;
5135;SDS011;2586;48.710;9.202;2023-06-10T01:58:12;6.13;;;5.30;;
5135;SDS011;2586;48.710;9.202;2023-06-10T02:00:38;9.77;;;5.43;;
5135;SDS011;2586;48.710;9.202;2023-06-10T02:03:04;6.00;;;4.87;;
5135;SDS011;2586;48.710;9.202;2023-06-10T02:05:29;5.77;;;4.80;;
5135;SDS011;2586;48.710;9.202;2023-06-10T02:07:55;7.63;;;5.50;;
5135;SDS011;2586;48.710;9.202;2023-06-10T02:10:21;5.63;;;5.03;;
5135;SDS011;2586;48.710;9.202;2023-06-10T02:12:46;7.80;;;5.30;;
5135;SDS011;2586;48.710;9.202;2023-06-10T02:15:12;6.10;;;4.90;;
5135;SDS011;2586;48.710;9.202;2023-06-10T02:17:37;5.13;;;4.67;;
5135;SDS011;2586;48.710;9.202;2023-06-10T02:20:04;8.33;;;4.80;;
5135;SDS011;2586;48.710;9.202;2023-06-10T02:22:32;5.30;;;4.80;;
5135;SDS011;2586;48.710;9.202;2023-06-10T02:24:58;9.03;;;5.30;;
5135;SDS011;2586;48.710;9.202;2023-06-10T02:27:23;5.40;;;4.90;;
5135;SDS011;2586;48.710;9.202;2023-06-10T02:29:49;6.10;;;5.50;;
5135;SDS011;2586;48.710;9.202;2023-06-10T02:32:15;5.90;;;5.30;;
5135;SDS011;2586;48.710;9.202;2023-06-10T02:34:41;5.80;;;5.40;;
5135;SDS011;2586;48.710;9.202;2023-06-10T02:37:07;7.30;;;6.03;;
5135;SDS011;2586;48.710;9.202;2023-06-10T02:39:33;12.03;;;5.70;;
5135;SDS011;2586;48.710;9.202;2023-06-10T02:41:59;6.47;;;5.80;;
5135;SDS011;2586;48.710;9.202;2023-06-10T02:44:25;5.70;;;5.10;;
5135;SDS011;2586;48.710;9.202;2023-06-10T02:46:50;5.33;;;4.80;;
5135;SDS011;2586;48.710;9.202;2023-06-10T02:49:16;7.30;;;5.30;;
5135;SDS011;2586;48.710;9.202;2023-06-10T02:51:42;6.17;;;5.07;;
5135;SDS011;2586;48.710;9.202;2023-06-10T02:54:07;10.40;;;4.50;;
5135;SDS011;2586;48.710;9.202;2023-06-10T02:56:33;6.20;;;5.60;;
5135;SDS011;2586;48.710;9.202;2023-06-10T02:58:59;4.80;;;4.33;;
5135;SDS011;2586;48.710;9.202;2023-06-10T03:01:25;5.00;;;4.50;;
5135;SDS011;2586;48.710;9.202;2023-06-10T03:03:51;5.53;;;5.00;;
5135;SDS011;2586;48.710;9.202;2023-06-10T03:06:17;5.37;;;4.73;;
5135;SDS011;2586;48.710;9.202;2023-06-10T03:08:43;5.53;;;5.07;;
5135;SDS011;2586;48.710;9.202;2023-06-10T03:11:10;6.33;;;5.73;;
5135;SDS011;2586;48.710;9.202;2023-06-10T03:13:36;4.77;;;4.47;;
5135;SDS011;2586;48.710;9.202;2023-06-10T03:16:03;6.37;;;5.30;;
5135;SDS011;2586;48.710;9.202;2023-06-10T03:18:29;5.40;;;4.90;;
5135;SDS011;2586;48.710;9.202;2023-06-10T03:20:55;5.57;;;5.10;;
5135;SDS011;2586;48.710;9.202;2023-06-10T03:23:21;5.63;;;5.13;;
5135;SDS011;2586;48.710;9.202;2023-06-10T03:25:47;5.90;;;5.30;;
5135;SDS011;2586;48.710;9.202;2023-06-10T03:28:13;5.00;;;4.60;;
5135;SDS011;2586;48.710;9.202;2023-06-10T03:30:39;5.50;;;4.57;;
5135;SDS011;2586;48.710;9.202;2023-06-10T03:33:04;5.83;;;5.23;;
5135;SDS011;2586;48.710;9.202;2023-06-10T03:35:30;5.33;;;4.83;;
5135;SDS011;2586;48.710;9.202;2023-06-10T03:37:57;6.37;;;4.67;;
5135;SDS011;2586;48.710;9.202;2023-06-10T03:40:23;6.30;;;5.67;;
5135;SDS011;2586;48.710;9.202;2023-06-10T03:42:48;5.20;;;4.80;;
5135;SDS011;2586;48.710;9.202;2023-06-10T03:45:14;11.50;;;5.70;;
5135;SDS011;2586;48.710;9.202;2023-06-10T03:47:40;8.83;;;4.53;;
5135;SDS011;2586;48.710;9.202;2023-06-10T03:50:06;5.90;;;5.10;;
5135;SDS011;2586;48.710;9.202;2023-06-10T03:52:33;4.97;;;4.57;;
5135;SDS011;2586;48.710;9.202;2023-06-10T03:54:59;4.67;;;4.30;;
5135;SDS011;2586;48.710;9.202;2023-06-10T03:57:25;8.00;;;4.80;;
5135;SDS011;2586;48.710;9.202;2023-06-10T03:59:51;4.77;;;4.30;;
5135;SDS011;2586;48.710;9.202;2023-06-10T04:02:16;5.10;;;4.60;;
5135;SDS011;2586;48.710;9.202;2023-06-10T04:04:42;5.13;;;4.73;;
5135;SDS011;2586;48.710;9.202;2023-06-10T04:07:08;5.63;;;3.67;;
5135;SDS011;2586;48.710;9.202;2023-06-10T04:09:34;5.43;;;4.60;;
5135;SDS011;2586;48.710;9.202;2023-06-10T04:12:01;8.03;;;4.00;;
5135;SDS011;2586;48.710;9.202;2023-06-10T04:14:27;5.00;;;4.50;;
5135;SDS011;2586;48.710;9.202;2023-06-10T04:16:53;5.20;;;4.70;;
5135;SDS011;2586;48.710;9.202;2023-06-10T04:19:18;5.60;;;4.50;;
5135;SDS011;2586;48.710;9.202;2023-06-10T04:21:45;3.57;;;3.30;;
5135;SDS011;2586;48.710;9.202;2023-06-10T04:24:10;7.53;;;4.70;;
5135;SDS011;2586;48.710;9.202;2023-06-10T04:26:36;4.60;;;4.20;;
5135;SDS011;2586;48.710;9.202;2023-06-10T04:29:02;6.90;;;5.20;;
5135;SDS011;2586;48.710;9.202;2023-06-10T04:31:27;4.50;;;4.10;;
5135;SDS011;2586;48.710;9.202;2023-06-10T04:33:53;7.33;;;4.83;;
5135;SDS011;2586;48.710;9.202;2023-06-10T04:36:19;4.30;;;4.00;;
5135;SDS011;2586;48.710;9.202;2023-06-10T04:38:45;4.80;;;4.50;;
5135;SDS011;2586;48.710;9.202;2023-06-10T04:41:11;4.43;;;4.13;;
5135;SDS011;2586;48.710;9.202;2023-06-10T04:43:37;6.57;;;5.07;;
5135;SDS011;2586;48.710;9.202;2023-06-10T04:46:03;4.17;;;3.80;;
5135;SDS011;2586;48.710;9.202;2023-06-10T04:48:29;6.63;;;4.80;;
5135;SDS011;2586;48.710;9.202;2023-06-10T04:50:54;4.83;;;4.37;;
5135;SDS011;2586;48.710;9.202;2023-06-10T04:53:21;4.50;;;4.10;;
5135;SDS011;2586;48.710;9.202;2023-06-10T04:55:47;4.43;;;4.03;;
5135;SDS011;2586;48.710;9.202;2023-06-10T04:58:13;6.00;;;4.93;;
5135;SDS011;2586;48.710;9.202;2023-06-10T05:00:39;6.03;;;4.63;;
5135;SDS011;2586;48.710;9.202;2023-06-10T05:03:05;6.37;;;4.23;;
5135;SDS011;2586;48.710;9.202;2023-06-10T05:05:30;4.50;;;4.13;;
5135;SDS011;2586;48.710;9.202;2023-06-10T05:07:56;5.13;;;4.70;;
5135;SDS011;2586;48.710;9.202;2023-06-10T05:10:22;5.20;;;4.70;;
5135;SDS011;2586;48.710;9.202;2023-06-10T05:12:47;11.77;;;4.63;;
5135;SDS011;2586;48.710;9.202;2023-06-10T05:15:13;3.63;;;3.40;;
5135;SDS011;2586;48.710;9.202;2023-06-10T05:17:38;4.47;;;4.10;;
5135;SDS011;2586;48.710;9.202;2023-06-10T05:20:04;4.47;;;4.07;;
5135;SDS011;2586;48.710;9.202;2023-06-10T05:22:31;5.47;;;4.87;;
5135;SDS011;2586;48.710;9.202;2023-06-10T05:24:56;7.93;;;5.20;;
5135;SDS011;2586;48.710;9.202;2023-06-10T05:27:22;4.57;;;4.27;;
5135;SDS011;2586;48.710;9.202;2023-06-10T05:29:48;4.97;;;4.50;;
5135;SDS011;2586;48.710;9.202;2023-06-10T05:32:13;4.83;;;4.43;;
5135;SDS011;2586;48.710;9.202;2023-06-10T05:34:39;4.33;;;3.93;;
5135;SDS011;2586;48.710;9.202;2023-06-10T05:37:05;5.80;;;4.80;;
5135;SDS011;2586;48.710;9.202;2023-06-10T05:39:30;4.70;;;4.30;;
5135;SDS011;2586;48.710;9.202;2023-06-10T05:41:56;5.03;;;4.43;;
5135;SDS011;2586;48.710;9.202;2023-06-10T05:44:24;9.17;;;4.20;;
5135;SDS011;2586;48.710;9.202;2023-06-10T05:46:49;6.20;;;4.00;;
5135;SDS011;2586;48.710;9.202;2023-06-10T05:49:15;4.40;;;4.10;;
5135;SDS011;2586;48.710;9.202;2023-06-10T05:51:41;7.87;;;4.00;;
5135;SDS011;2586;48.710;9.202;2023-06-10T05:54:06;5.63;;;4.33;;
5135;SDS011;2586;48.710;9.202;2023-06-10T05:56:32;5.07;;;4.23;;
5135;SDS011;2586;48.710;9.202;2023-06-10T05:58:58;8.00;;;5.57;;
5135;SDS011;2586;48.710;9.202;2023-06-10T06:01:23;4.80;;;4.40;;
5135;SDS011;2586;48.710;9.202;2023-06-10T06:03:49;4.40;;;4.00;;
5135;SDS011;2586;48.710;9.202;2023-06-10T06:06:15;11.57;;;4.60;;
5135;SDS011;2586;48.710;9.202;2023-06-10T06:08:40;5.00;;;4.70;;
5135;SDS011;2586;48.710;9.202;2023-06-10T06:11:06;5.20;;;3.97;;
5135;SDS011;2586;48.710;9.202;2023-06-10T06:13:31;6.77;;;4.40;;
5135;SDS011;2586;48.710;9.202;2023-06-10T06:15:57;4.33;;;4.03;;
5135;SDS011;2586;48.710;9.202;2023-06-10T06:18:22;4.97;;;4.57;;
5135;SDS011;2586;48.710;9.202;2023-06-10T06:20:49;7.00;;;5.30;;
5135;SDS011;2586;48.710;9.202;2023-06-10T06:23:15;4.50;;;4.10;;
5135;SDS011;2586;48.710;9.202;2023-06-10T06:25:40;6.40;;;4.80;;
5135;SDS011;2586;48.710;9.202;2023-06-10T06:28:06;5.33;;;4.87;;
5135;SDS011;2586;48.710;9.202;2023-06-10T06:30:32;5.10;;;4.60;;
5135;SDS011;2586;48.710;9.202;2023-06-10T06:32:58;4.63;;;4.10;;
5135;SDS011;2586;48.710;9.202;2023-06-10T06:35:24;5.20;;;4.70;;
5135;SDS011;2586;48.710;9.202;2023-06-10T06:37:49;4.93;;;4.40;;
5135;SDS011;2586;48.710;9.202;2023-06-10T06:40:15;5.30;;;4.57;;
5135;SDS011;2586;48.710;9.202;2023-06-10T06:42:40;6.27;;;5.00;;
5135;SDS011;2586;48.710;9.202;2023-06-10T06:45:06;4.73;;;4.33;;
5135;SDS011;2586;48.710;9.202;2023-06-10T06:47:32;5.33;;;4.87;;
5135;SDS011;2586;48.710;9.202;2023-06-10T06:49:57;4.00;;;3.70;;
5135;SDS011;2586;48.710;9.202;2023-06-10T06:52:23;10.50;;;4.60;;
5135;SDS011;2586;48.710;9.202;2023-06-10T06:54:48;7.60;;;4.77;;
5135;SDS011;2586;48.710;9.202;2023-06-10T06:57:14;4.93;;;4.50;;
5135;SDS011;2586;48.710;9.202;2023-06-10T06:59:40;5.63;;;5.13;;
5135;SDS011;2586;48.710;9.202;2023-06-10T07:02:05;4.93;;;4.53;;
5135;SDS011;2586;48.710;9.202;2023-06-10T07:04:31;5.30;;;4.83;;
5135;SDS011;2586;48.710;9.202;2023-06-10T07:06:57;5.27;;;4.87;;
5135;SDS011;2586;48.710;9.202;2023-06-10T07:09:22;5.43;;;5.00;;
5135;SDS011;2586;48.710;9.202;2023-06-10T07:11:48;10.70;;;5.10;;
5135;SDS011;2586;48.710;9.202;2023-06-10T07:14:13;5.90;;;4.97;;
5135;SDS011;2586;48.710;9.202;2023-06-10T07:16:39;5.43;;;5.03;;
5135;SDS011;2586;48.710;9.202;2023-06-10T07:19:05;5.13;;;4.63;;
5135;SDS011;2586;48.710;9.202;2023-06-10T07:21:30;5.70;;;4.20;;
5135;SDS011;2586;48.710;9.202;2023-06-10T07:23:57;5.33;;;4.80;;
5135;SDS011;2586;48.710;9.202;2023-06-10T07:26:23;6.10;;;4.50;;
5135;SDS011;2586;48.710;9.202;2023-06-10T07:28:48;4.70;;;4.40;;
5135;SDS011;2586;48.710;9.202;2023-06-10T07:31:14;4.33;;;4.00;;
5135;SDS011;2586;48.710;9.202;2023-06-10T07:33:40;7.03;;;4.60;;
5135;SDS011;2586;48.710;9.202;2023-06-10T07:36:06;5.43;;;4.60;;
5135;SDS011;2586;48.710;9.202;2023-06-10T07:38:31;5.63;;;5.13;;
5135;SDS011;2586;48.710;9.202;2023-06-10T07:40:57;7.70;;;4.20;;
5135;SDS011;2586;48.710;9.202;2023-06-10T07:43:23;6.60;;;4.50;;
5135;SDS011;2586;48.710;9.202;2023-06-10T07:45:49;4.27;;;3.87;;
5135;SDS011;2586;48.710;9.202;2023-06-10T07:48:15;4.70;;;4.33;;
5135;SDS011;2586;48.710;9.202;2023-06-10T07:50:40;4.60;;;4.20;;
5135;SDS011;2586;48.710;9.202;2023-06-10T07:53:06;5.33;;;4.70;;
5135;SDS011;2586;48.710;9.202;2023-06-10T07:55:31;4.47;;;4.07;;
5135;SDS011;2586;48.710;9.202;2023-06-10T07:57:57;4.77;;;4.47;;
5135;SDS011;2586;48.710;9.202;2023-06-10T08:00:22;5.50;;;4.10;;
5135;SDS011;2586;48.710;9.202;2023-06-10T08:02:48;4.73;;;4.30;;
5135;SDS011;2586;48.710;9.202;2023-06-10T08:05:15;4.63;;;4.23;;
5135;SDS011;2586;48.710;9.202;2023-06-10T08:07:41;6.93;;;4.97;;
5135;SDS011;2586;48.710;9.202;2023-06-10T08:10:06;9.07;;;3.90;;
5135;SDS011;2586;48.710;9.202;2023-06-10T08:12:33;5.27;;;4.77;;
5135;SDS011;2586;48.710;9.202;2023-06-10T08:14:59;5.10;;;4.60;;
5135;SDS011;2586;48.710;9.202;2023-06-10T08:17:25;4.70;;;4.40;;
5135;SDS011;2586;48.710;9.202;2023-06-10T08:19:50;4.60;;;3.93;;
5135;SDS011;2586;48.710;9.202;2023-06-10T08:22:16;5.00;;;4.60;;
5135;SDS011;2586;48.710;9.202;2023-06-10T08:24:41;6.80;;;4.20;;
5135;SDS011;2586;48.710;9.202;2023-06-10T08:27:07;4.70;;;4.40;;
5135;SDS011;2586;48.710;9.202;2023-06-10T08:29:32;5.30;;;4.80;;
5135;SDS011;2586;48.710;9.202;2023-06-10T08:31:58;4.50;;;4.13;;
5135;SDS011;2586;48.710;9.202;2023-06-10T08:34:24;7.27;;;3.90;;
5135;SDS011;2586;48.710;9.202;2023-06-10T08:36:49;4.20;;;3.90;;
5135;SDS011;2586;48.710;9.202;2023-06-10T08:39:18;4.10;;;3.80;;
5135;SDS011;2586;48.710;9.202;2023-06-10T08:41:45;15.53;;;5.40;;
5135;SDS011;2586;48.710;9.202;2023-06-10T08:44:32;5.17;;;4.67;;
5135;SDS011;2586;48.710;9.202;2023-06-10T08:47:05;5.00;;;4.60;;
5135;SDS011;2586;48.710;9.202;2023-06-10T08:49:36;4.37;;;4.07;;
5135;SDS011;2586;48.710;9.202;2023-06-10T08:52:05;5.60;;;4.70;;
5135;SDS011;2586;48.710;9.202;2023-06-10T08:54:32;5.23;;;4.23;;
5135;SDS011;2586;48.710;9.202;2023-06-10T08:57:03;4.53;;;4.13;;
5135;SDS011;2586;48.710;9.202;2023-06-10T08:59:33;4.17;;;3.87;;
5135;SDS011;2586;48.710;9.202;2023-06-10T09:01:59;4.60;;;4.23;;
5135;SDS011;2586;48.710;9.202;2023-06-10T09:04:27;4.40;;;4.00;;
5135;SDS011;2586;48.710;9.202;2023-06-10T09:06:52;4.53;;;4.23;;
5135;SDS011;2586;48.710;9.202;2023-06-10T09:09:19;11.13;;;4.30;;
5135;SDS011;2586;48.710;9.202;2023-06-10T09:11:45;4.97;;;4.47;;
5135;SDS011;2586;48.710;9.202;2023-06-10T09:14:10;5.23;;;4.70;;
5135;SDS011;2586;48.710;9.202;2023-06-10T09:16:37;10.63;;;3.67;;
5135;SDS011;2586;48.710;9.202;2023-06-10T09:19:04;5.40;;;4.00;;
5135;SDS011;2586;48.710;9.202;2023-06-10T09:21:32;4.37;;;3.97;;
5135;SDS011;2586;48.710;9.202;2023-06-10T09:23:58;5.33;;;4.57;;
5135;SDS011;2586;48.710;9.202;2023-06-10T09:26:27;5.37;;;4.90;;
5135;SDS011;2586;48.710;9.202;2023-06-10T09:28:57;4.47;;;4.07;;
5135;SDS011;2586;48.710;9.202;2023-06-10T09:31:37;3.50;;;3.30;;
5135;SDS011;2586;48.710;9.202;2023-06-10T09:34:04;4.10;;;3.90;;
5135;SDS011;2586;48.710;9.202;2023-06-10T09:36:34;5.23;;;3.60;;
5135;SDS011;2586;48.710;9.202;2023-06-10T09:39:01;4.50;;;4.10;;
5135;SDS011;2586;48.710;9.202;2023-06-10T09:41:34;6.13;;;3.80;;
5135;SDS011;2586;48.710;9.202;2023-06-10T09:44:00;4.53;;;3.97;;
5135;SDS011;2586;48.710;9.202;2023-06-10T09:46:31;6.10;;;4.53;;
5135;SDS011;2586;48.710;9.202;2023-06-10T09:49:00;3.43;;;3.23;;
5135;SDS011;2586;48.710;9.202;2023-06-10T09:51:25;3.93;;;3.63;;
5135;SDS011;2586;48.710;9.202;2023-06-10T09:53:51;4.10;;;3.80;;
5135;SDS011;2586;48.710;9.202;2023-06-10T09:56:18;4.50;;;3.70;;
5135;SDS011;2586;48.710;9.202;2023-06-10T09:58:44;7.60;;;3.70;;
5135;SDS011;2586;48.710;9.202;2023-06-10T10:01:11;4.00;;;3.60;;
5135;SDS011;2586;48.710;9.202;2023-06-10T10:03:45;3.43;;;3.13;;
5135;SDS011;2586;48.710;9.202;2023-06-10T10:06:12;3.57;;;3.27;;
5135;SDS011;2586;48.710;9.202;2023-06-10T10:08:39;3.83;;;3.40;;
5135;SDS011;2586;48.710;9.202;2023-06-10T10:11:05;6.80;;;3.20;;
5135;SDS011;2586;48.710;9.202;2023-06-10T10:13:31;4.93;;;3.90;;
5135;SDS011;2586;48.710;9.202;2023-06-10T10:15:59;4.43;;;4.07;;
5135;SDS011;2586;48.710;9.202;2023-06-10T10:18:29;3.93;;;3.20;;
5135;SDS011;2586;48.710;9.202;2023-06-10T10:20:57;5.90;;;3.60;;
5135;SDS011;2586;48.710;9.202;2023-06-10T10:23:37;3.60;;;3.43;;
5135;SDS011;2586;48.710;9.202;2023-06-10T10:26:10;3.33;;;3.13;;
5135;SDS011;2586;48.710;9.202;2023-06-10T10:28:38;4.57;;;3.27;;
5135;SDS011;2586;48.710;9.202;2023-06-10T10:31:10;4.20;;;3.60;;
5135;SDS011;2586;48.710;9.202;2023-06-10T10:33:45;3.83;;;3.63;;
5135;SDS011;2586;48.710;9.202;2023-06-10T10:36:19;13.60;;;4.23;;
5135;SDS011;2586;48.710;9.202;2023-06-10T10:38:45;3.90;;;3.70;;
5135;SDS011;2586;48.710;9.202;2023-06-10T10:41:12;3.30;;;2.90;;
5135;SDS011;2586;48.710;9.202;2023-06-10T10:43:39;4.60;;;3.70;;
5135;SDS011;2586;48.710;9.202;2023-06-10T10:46:16;7.27;;;4.50;;
5135;SDS011;2586;48.710;9.202;2023-06-10T10:48:42;6.73;;;3.77;;
5135;SDS011;2586;48.710;9.202;2023-06-10T10:51:09;4.70;;;4.30;;
5135;SDS011;2586;48.710;9.202;2023-06-10T10:53:38;4.20;;;3.80;;
5135;SDS011;2586;48.710;9.202;2023-06-10T10:56:04;3.43;;;3.23;;
5135;SDS011;2586;48.710;9.202;2023-06-10T10:58:30;7.70;;;4.27;;
5135;SDS011;2586;48.710;9.202;2023-06-10T11:00:57;5.20;;;3.67;;
5135;SDS011;2586;48.710;9.202;2023-06-10T11:03:22;4.53;;;4.23;;
5135;SDS011;2586;48.710;9.202;2023-06-10T11:05:54;5.20;;;3.80;;
5135;SDS011;2586;48.710;9.202;2023-06-10T11:10:54;4.00;;;3.70;;
5135;SDS011;2586;48.710;9.202;2023-06-10T11:13:20;3.87;;;3.57;;
5135;SDS011;2586;48.710;9.202;2023-06-10T11:15:47;6.30;;;2.83;;
5135;SDS011;2586;48.710;9.202;2023-06-10T11:18:22;9.17;;;3.57;;
5135;SDS011;2586;48.710;9.202;2023-06-10T11:26:15;5.40;;;2.90;;
5135;SDS011;2586;48.710;9.202;2023-06-10T11:28:39;3.20;;;3.00;;
5135;SDS011;2586;48.710;9.202;2023-06-10T11:31:05;2.83;;;2.70;;
5135;SDS011;2586;48.710;9.202;2023-06-10T11:33:31;3.97;;;3.43;;
5135;SDS011;2586;48.710;9.202;2023-06-10T11:35:57;3.30;;;3.00;;
5135;SDS011;2586;48.710;9.202;2023-06-10T11:38:23;3.43;;;3.13;;
5135;SDS011;2586;48.710;9.202;2023-06-10T11:40:49;3.90;;;3.60;;
5135;SDS011;2586;48.710;9.202;2023-06-10T11:43:16;3.90;;;3.20;;
5135;SDS011;2586;48.710;9.202;2023-06-10T11:45:42;3.97;;;3.17;;
5135;SDS011;2586;48.710;9.202;2023-06-10T11:48:08;3.27;;;3.00;;
5135;SDS011;2586;48.710;9.202;2023-06-10T11:50:34;3.87;;;3.57;;
5135;SDS011;2586;48.710;9.202;2023-06-10T11:53:01;3.43;;;3.23;;
5135;SDS011;2586;48.710;9.202;2023-06-10T11:55:44;3.13;;;3.00;;
5135;SDS011;2586;48.710;9.202;2023-06-10T12:00:48;3.60;;;3.37;;
5135;SDS011;2586;48.710;9.202;2023-06-10T12:03:23;4.30;;;3.40;;
5135;SDS011;2586;48.710;9.202;2023-06-10T12:05:55;5.47;;;3.47;;
5135;SDS011;2586;48.710;9.202;2023-06-10T12:08:23;4.07;;;3.67;;
5135;SDS011;2586;48.710;9.202;2023-06-10T12:10:50;3.90;;;3.50;;
5135;SDS011;2586;48.710;9.202;2023-06-10T12:13:15;3.90;;;3.60;;
5135;SDS011;2586;48.710;9.202;2023-06-10T12:15:43;3.47;;;3.13;;
5135;SDS011;2586;48.710;9.202;2023-06-10T12:18:15;5.10;;;3.93;;
5135;SDS011;2586;48.710;9.202;2023-06-10T12:20:45;3.77;;;3.33;;
5135;SDS011;2586;48.710;9.202;2023-06-10T12:23:11;3.33;;;3.10;;
5135;SDS011;2586;48.710;9.202;2023-06-10T12:25:38;4.30;;;3.80;;
5135;SDS011;2586;48.710;9.202;2023-06-10T12:28:04;4.20;;;3.83;;
5135;SDS011;2586;48.710;9.202;2023-06-10T12:30:31;7.37;;;3.60;;
5135;SDS011;2586;48.710;9.202;2023-06-10T12:32:57;3.50;;;3.20;;
5135;SDS011;2586;48.710;9.202;2023-06-10T12:35:24;7.20;;;3.70;;
5135;SDS011;2586;48.710;9.202;2023-06-10T12:37:57;3.63;;;3.40;;
5135;SDS011;2586;48.710;9.202;2023-06-10T12:40:32;4.37;;;3.30;;
5135;SDS011;2586;48.710;9.202;2023-06-10T12:42:59;3.47;;;3.20;;
5135;SDS011;2586;48.710;9.202;2023-06-10T12:48:17;3.93;;;2.80;;
5135;SDS011;2586;48.710;9.202;2023-06-10T12:50:51;2.73;;;2.63;;
5135;SDS011;2586;48.710;9.202;2023-06-10T12:53:18;3.53;;;2.90;;
5135;SDS011;2586;48.710;9.202;2023-06-10T12:55:45;3.43;;;3.23;;
5135;SDS011;2586;48.710;9.202;2023-06-10T12:58:11;3.13;;;2.93;;
5135;SDS011;2586;48.710;9.202;2023-06-10T13:00:37;6.30;;;3.63;;
5135;SDS011;2586;48.710;9.202;2023-06-10T13:03:03;5.17;;;2.50;;
5135;SDS011;2586;48.710;9.202;2023-06-10T13:05:30;6.33;;;2.50;;
5135;SDS011;2586;48.710;9.202;2023-06-10T13:07:56;2.77;;;2.53;;
5135;SDS011;2586;48.710;9.202;2023-06-10T13:10:22;2.50;;;2.30;;
5135;SDS011;2586;48.710;9.202;2023-06-10T13:12:48;3.03;;;2.83;;
5135;SDS011;2586;48.710;9.202;2023-06-10T13:15:14;3.33;;;2.83;;
5135;SDS011;2586;48.710;9.202;2023-06-10T13:17:42;3.40;;;3.10;;
5135;SDS011;2586;48.710;9.202;2023-06-10T13:20:08;3.40;;;3.20;;
5135;SDS011;2586;48.710;9.202;2023-06-10T13:22:34;2.97;;;2.80;;
5135;SDS011;2586;48.710;9.202;2023-06-10T13:25:04;8.60;;;2.83;;
5135;SDS011;2586;48.710;9.202;2023-06-10T13:27:32;3.27;;;3.00;;
5135;SDS011;2586;48.710;9.202;2023-06-10T13:29:59;3.33;;;2.80;;
5135;SDS011;2586;48.710;9.202;2023-06-10T13:32:24;3.00;;;2.80;;
5135;SDS011;2586;48.710;9.202;2023-06-10T13:34:50;4.43;;;3.67;;
5135;SDS011;2586;48.710;9.202;2023-06-10T13:37:16;4.17;;;3.17;;
5135;SDS011;2586;48.710;9.202;2023-06-10T13:39:45;3.97;;;3.10;;
5135;SDS011;2586;48.710;9.202;2023-06-10T13:42:16;3.70;;;3.40;;
5135;SDS011;2586;48.710;9.202;2023-06-10T13:44:42;3.10;;;2.90;;
5135;SDS011;2586;48.710;9.202;2023-06-10T13:47:08;3.73;;;3.33;;
5135;SDS011;2586;48.710;9.202;2023-06-10T13:49:33;3.63;;;3.10;;
5135;SDS011;2586;48.710;9.202;2023-06-10T13:51:59;4.03;;;3.73;;
5135;SDS011;2586;48.710;9.202;2023-06-10T13:54:25;3.80;;;3.00;;
5135;SDS011;2586;48.710;9.202;2023-06-10T13:56:50;3.27;;;2.97;;
5135;SDS011;2586;48.710;9.202;2023-06-10T13:59:16;6.23;;;3.73;;
5135;SDS011;2586;48.710;9.202;2023-06-10T14:01:43;3.73;;;3.53;;
5135;SDS011;2586;48.710;9.202;2023-06-10T14:04:10;3.13;;;2.93;;
5135;SDS011;2586;48.710;9.202;2023-06-10T14:06:35;3.20;;;3.00;;
5135;SDS011;2586;48.710;9.202;2023-06-10T14:09:01;4.13;;;2.80;;
5135;SDS011;2586;48.710;9.202;2023-06-10T14:11:26;5.20;;;2.70;;
5135;SDS011;2586;48.710;9.202;2023-06-10T14:13:52;2.93;;;2.73;;
5135;SDS011;2586;48.710;9.202;2023-06-10T14:16:18;3.23;;;2.97;;
5135;SDS011;2586;48.710;9.202;2023-06-10T14:18:43;8.33;;;3.10;;
5135;SDS011;2586;48.710;9.202;2023-06-10T14:21:09;7.90;;;3.00;;
5135;SDS011;2586;48.710;9.202;2023-06-10T14:23:35;3.13;;;2.93;;
5135;SDS011;2586;48.710;9.202;2023-06-10T14:26:00;4.43;;;3.10;;
5135;SDS011;2586;48.710;9.202;2023-06-10T14:28:28;3.83;;;3.20;;
5135;SDS011;2586;48.710;9.202;2023-06-10T14:30:54;3.70;;;3.40;;
5135;SDS011;2586;48.710;9.202;2023-06-10T14:33:20;2.87;;;2.77;;
5135;SDS011;2586;48.710;9.202;2023-06-10T14:35:45;2.80;;;2.60;;
5135;SDS011;2586;48.710;9.202;2023-06-10T14:38:11;3.63;;;3.33;;
5135;SDS011;2586;48.710;9.202;2023-06-10T14:40:37;3.60;;;3.30;;
5135;SDS011;2586;48.710;9.202;2023-06-10T14:43:02;2.97;;;2.77;;
5135;SDS011;2586;48.710;9.202;2023-06-10T14:45:34;3.43;;;3.13;;
5135;SDS011;2586;48.710;9.202;2023-06-10T14:48:00;3.13;;;2.87;;
5135;SDS011;2586;48.710;9.202;2023-06-10T14:50:26;3.10;;;2.93;;
5135;SDS011;2586;48.710;9.202;2023-06-10T14:52:51;4.30;;;3.00;;
5135;SDS011;2586;48.710;9.202;2023-06-10T14:55:17;3.20;;;3.00;;
5135;SDS011;2586;48.710;9.202;2023-06-10T14:57:43;3.30;;;3.10;;
5135;SDS011;2586;48.710;9.202;2023-06-10T15:00:08;5.40;;;4.00;;
5135;SDS011;2586;48.710;9.202;2023-06-10T15:02:34;3.23;;;2.90;;
5135;SDS011;2586;48.710;9.202;2023-06-10T15:05:00;3.73;;;3.00;;
5135;SDS011;2586;48.710;9.202;2023-06-10T15:07:25;3.60;;;3.40;;
5135;SDS011;2586;48.710;9.202;2023-06-10T15:09:51;8.17;;;3.67;;
5135;SDS011;2586;48.710;9.202;2023-06-10T15:12:17;3.70;;;3.43;;
5135;SDS011;2586;48.710;9.202;2023-06-10T15:14:42;3.50;;;3.20;;
5135;SDS011;2586;48.710;9.202;2023-06-10T15:17:08;4.00;;;3.70;;
5135;SDS011;2586;48.710;9.202;2023-06-10T15:19:33;3.90;;;3.60;;
5135;SDS011;2586;48.710;9.202;2023-06-10T15:21:59;8.57;;;3.60;;
5135;SDS011;2586;48.710;9.202;2023-06-10T15:24:24;4.03;;;3.73;;
5135;SDS011;2586;48.710;9.202;2023-06-10T15:26:50;3.90;;;3.60;;
5135;SDS011;2586;48.710;9.202;2023-06-10T15:29:15;3.70;;;3.50;;
5135;SDS011;2586;48.710;9.202;2023-06-10T15:31:41;5.93;;;3.23;;
5135;SDS011;2586;48.710;9.202;2023-06-10T15:34:06;4.00;;;3.03;;